sensor_id;sensor_type;location;lat;lon;timestamp;P1;durP1;ratioP1;P2;durP2;ratioP2
35434;SDS011;21556;55.782;37.528;2022-12-20T00:01:47;8.07;;;4.43;;
35434;SDS011;21556;55.782;37.528;2022-12-20T00:04:13;8.23;;;4.97;;
35434;SDS011;21556;55.782;37.528;2022-12-20T00:06:38;8.27;;;4.87;;
35434;SDS011;21556;55.782;37.528;2022-12-20T00:09:06;7.67;;;4.40;;
35434;SDS011;21556;55.782;37.528;2022-12-20T00:11:32;8.30;;;4.87;;
35434;SDS011;21556;55.782;37.528;2022-12-20T00:13:58;6.10;;;4.03;;
35434;SDS011;21556;55.782;37.528;2022-12-20T00:16:25;7.50;;;5.00;;
35434;SDS011;21556;55.782;37.528;2022-12-20T00:18:55;10.10;;;4.80;;
35434;SDS011;21556;55.782;37.528;2022-12-20T00:21:21;10.90;;;5.30;;
35434;SDS011;21556;55.782;37.528;2022-12-20T00:23:47;9.30;;;4.77;;
35434;SDS011;21556;55.782;37.528;2022-12-20T00:26:13;8.87;;;4.67;;
35434;SDS011;21556;55.782;37.528;2022-12-20T00:28:39;8.43;;;5.53;;
35434;SDS011;21556;55.782;37.528;2022-12-20T00:31:06;7.33;;;4.90;;
35434;SDS011;21556;55.782;37.528;2022-12-20T00:33:33;7.27;;;4.07;;
35434;SDS011;21556;55.782;37.528;2022-12-20T00:35:58;10.10;;;5.03;;
35434;SDS011;21556;55.782;37.528;2022-12-20T00:38:24;6.47;;;4.47;;
35434;SDS011;21556;55.782;37.528;2022-12-20T00:41:04;7.93;;;4.97;;
35434;SDS011;21556;55.782;37.528;2022-12-20T00:43:30;7.17;;;4.57;;
35434;SDS011;21556;55.782;37.528;2022-12-20T00:45:56;6.87;;;3.87;;
35434;SDS011;21556;55.782;37.528;2022-12-20T00:48:22;6.93;;;4.83;;
35434;SDS011;21556;55.782;37.528;2022-12-20T00:50:47;8.20;;;4.63;;
35434;SDS011;21556;55.782;37.528;2022-12-20T00:53:13;7.00;;;4.37;;
35434;SDS011;21556;55.782;37.528;2022-12-20T00:55:40;8.13;;;4.90;;
35434;SDS011;21556;55.782;37.528;2022-12-20T00:58:06;6.23;;;4.40;;
35434;SDS011;21556;55.782;37.528;2022-12-20T01:00:32;8.97;;;4.73;;
35434;SDS011;21556;55.782;37.528;2022-12-20T01:02:57;7.27;;;4.87;;
35434;SDS011;21556;55.782;37.528;2022-12-20T01:05:26;9.70;;;4.77;;
35434;SDS011;21556;55.782;37.528;2022-12-20T01:07:52;7.67;;;4.57;;
35434;SDS011;21556;55.782;37.528;2022-12-20T01:10:20;8.38;;;4.82;;
35434;SDS011;21556;55.782;37.528;2022-12-20T01:12:46;8.30;;;4.90;;
35434;SDS011;21556;55.782;37.528;2022-12-20T01:15:11;7.93;;;4.83;;
35434;SDS011;21556;55.782;37.528;2022-12-20T01:17:37;10.00;;;5.27;;
35434;SDS011;21556;55.782;37.528;2022-12-20T01:20:03;8.33;;;5.27;;
35434;SDS011;21556;55.782;37.528;2022-12-20T01:22:29;7.10;;;4.80;;
35434;SDS011;21556;55.782;37.528;2022-12-20T01:24:55;7.97;;;4.90;;
35434;SDS011;21556;55.782;37.528;2022-12-20T01:27:20;8.00;;;4.57;;
35434;SDS011;21556;55.782;37.528;2022-12-20T01:29:46;6.10;;;4.40;;
35434;SDS011;21556;55.782;37.528;2022-12-20T01:32:11;7.83;;;4.87;;
35434;SDS011;21556;55.782;37.528;2022-12-20T01:34:37;8.03;;;5.40;;
35434;SDS011;21556;55.782;37.528;2022-12-20T01:37:03;8.47;;;5.27;;
35434;SDS011;21556;55.782;37.528;2022-12-20T01:39:28;8.17;;;5.20;;
35434;SDS011;21556;55.782;37.528;2022-12-20T01:41:54;6.27;;;5.13;;
35434;SDS011;21556;55.782;37.528;2022-12-20T01:46:47;6.43;;;4.83;;
35434;SDS011;21556;55.782;37.528;2022-12-20T01:49:16;5.80;;;4.70;;
35434;SDS011;21556;55.782;37.528;2022-12-20T01:52:03;6.93;;;4.17;;
35434;SDS011;21556;55.782;37.528;2022-12-20T01:54:34;7.37;;;4.73;;
35434;SDS011;21556;55.782;37.528;2022-12-20T01:57:01;6.03;;;3.93;;
35434;SDS011;21556;55.782;37.528;2022-12-20T01:59:28;10.83;;;4.93;;
35434;SDS011;21556;55.782;37.528;2022-12-20T02:01:55;6.87;;;4.03;;
35434;SDS011;21556;55.782;37.528;2022-12-20T02:04:22;9.27;;;5.30;;
35434;SDS011;21556;55.782;37.528;2022-12-20T02:06:48;9.20;;;5.20;;
35434;SDS011;21556;55.782;37.528;2022-12-20T02:09:14;8.50;;;5.37;;
35434;SDS011;21556;55.782;37.528;2022-12-20T02:16:40;6.63;;;4.63;;
35434;SDS011;21556;55.782;37.528;2022-12-20T02:25:28;9.30;;;5.10;;
35434;SDS011;21556;55.782;37.528;2022-12-20T02:32:25;9.93;;;5.40;;
35434;SDS011;21556;55.782;37.528;2022-12-20T02:34:53;7.50;;;4.97;;
35434;SDS011;21556;55.782;37.528;2022-12-20T02:37:19;6.77;;;5.17;;
35434;SDS011;21556;55.782;37.528;2022-12-20T02:39:45;8.73;;;5.47;;
35434;SDS011;21556;55.782;37.528;2022-12-20T02:42:13;6.60;;;4.50;;
35434;SDS011;21556;55.782;37.528;2022-12-20T02:44:43;9.43;;;5.53;;
35434;SDS011;21556;55.782;37.528;2022-12-20T02:47:39;6.33;;;5.00;;
35434;SDS011;21556;55.782;37.528;2022-12-20T02:50:07;8.68;;;5.20;;
35434;SDS011;21556;55.782;37.528;2022-12-20T02:52:34;10.37;;;6.10;;
35434;SDS011;21556;55.782;37.528;2022-12-20T02:55:00;9.40;;;5.60;;
35434;SDS011;21556;55.782;37.528;2022-12-20T03:00:18;9.48;;;5.47;;
35434;SDS011;21556;55.782;37.528;2022-12-20T03:02:44;8.77;;;5.17;;
35434;SDS011;21556;55.782;37.528;2022-12-20T03:05:28;10.13;;;6.17;;
35434;SDS011;21556;55.782;37.528;2022-12-20T03:07:56;8.57;;;5.60;;
35434;SDS011;21556;55.782;37.528;2022-12-20T03:10:23;9.60;;;4.85;;
35434;SDS011;21556;55.782;37.528;2022-12-20T03:12:49;8.27;;;4.83;;
35434;SDS011;21556;55.782;37.528;2022-12-20T03:15:16;8.20;;;4.47;;
35434;SDS011;21556;55.782;37.528;2022-12-20T03:17:42;9.57;;;5.63;;
35434;SDS011;21556;55.782;37.528;2022-12-20T03:20:08;8.53;;;5.50;;
35434;SDS011;21556;55.782;37.528;2022-12-20T03:22:35;8.30;;;4.60;;
35434;SDS011;21556;55.782;37.528;2022-12-20T03:25:02;7.63;;;4.80;;
35434;SDS011;21556;55.782;37.528;2022-12-20T03:27:31;8.87;;;4.70;;
35434;SDS011;21556;55.782;37.528;2022-12-20T03:29:58;8.93;;;5.03;;
35434;SDS011;21556;55.782;37.528;2022-12-20T03:32:24;10.37;;;5.60;;
35434;SDS011;21556;55.782;37.528;2022-12-20T03:34:50;8.10;;;4.70;;
35434;SDS011;21556;55.782;37.528;2022-12-20T03:37:21;8.53;;;3.80;;
35434;SDS011;21556;55.782;37.528;2022-12-20T03:39:47;8.17;;;5.07;;
35434;SDS011;21556;55.782;37.528;2022-12-20T03:42:12;8.40;;;5.07;;
35434;SDS011;21556;55.782;37.528;2022-12-20T03:44:38;8.03;;;5.77;;
35434;SDS011;21556;55.782;37.528;2022-12-20T03:47:03;10.00;;;5.70;;
35434;SDS011;21556;55.782;37.528;2022-12-20T03:49:29;10.37;;;5.27;;
35434;SDS011;21556;55.782;37.528;2022-12-20T03:51:55;9.33;;;5.33;;
35434;SDS011;21556;55.782;37.528;2022-12-20T03:54:21;15.03;;;6.20;;
35434;SDS011;21556;55.782;37.528;2022-12-20T03:57:03;14.60;;;6.13;;
35434;SDS011;21556;55.782;37.528;2022-12-20T03:59:29;15.50;;;7.27;;
35434;SDS011;21556;55.782;37.528;2022-12-20T04:01:55;11.37;;;7.10;;
35434;SDS011;21556;55.782;37.528;2022-12-20T04:04:21;13.93;;;6.87;;
35434;SDS011;21556;55.782;37.528;2022-12-20T04:06:46;11.50;;;6.97;;
35434;SDS011;21556;55.782;37.528;2022-12-20T04:09:12;15.00;;;7.73;;
35434;SDS011;21556;55.782;37.528;2022-12-20T04:11:44;11.10;;;6.67;;
35434;SDS011;21556;55.782;37.528;2022-12-20T04:14:13;10.97;;;6.13;;
35434;SDS011;21556;55.782;37.528;2022-12-20T04:16:39;12.07;;;6.97;;
35434;SDS011;21556;55.782;37.528;2022-12-20T04:19:05;12.53;;;6.70;;
35434;SDS011;21556;55.782;37.528;2022-12-20T04:21:41;14.97;;;6.67;;
35434;SDS011;21556;55.782;37.528;2022-12-20T04:24:07;14.47;;;6.83;;
35434;SDS011;21556;55.782;37.528;2022-12-20T04:26:41;12.97;;;6.83;;
35434;SDS011;21556;55.782;37.528;2022-12-20T04:29:08;15.33;;;7.77;;
35434;SDS011;21556;55.782;37.528;2022-12-20T04:31:34;12.97;;;7.27;;
35434;SDS011;21556;55.782;37.528;2022-12-20T04:34:00;14.33;;;7.43;;
35434;SDS011;21556;55.782;37.528;2022-12-20T04:36:29;12.98;;;7.82;;
35434;SDS011;21556;55.782;37.528;2022-12-20T04:38:59;11.93;;;7.13;;
35434;SDS011;21556;55.782;37.528;2022-12-20T04:41:25;16.73;;;8.03;;
35434;SDS011;21556;55.782;37.528;2022-12-20T04:43:57;12.73;;;7.87;;
35434;SDS011;21556;55.782;37.528;2022-12-20T04:46:29;13.37;;;7.40;;
35434;SDS011;21556;55.782;37.528;2022-12-20T04:48:56;10.95;;;6.75;;
35434;SDS011;21556;55.782;37.528;2022-12-20T04:51:22;16.00;;;8.63;;
35434;SDS011;21556;55.782;37.528;2022-12-20T04:53:48;13.37;;;7.63;;
35434;SDS011;21556;55.782;37.528;2022-12-20T04:56:34;13.17;;;7.90;;
35434;SDS011;21556;55.782;37.528;2022-12-20T04:59:07;14.50;;;8.20;;
35434;SDS011;21556;55.782;37.528;2022-12-20T05:01:35;18.23;;;9.33;;
35434;SDS011;21556;55.782;37.528;2022-12-20T05:04:01;13.57;;;7.93;;
35434;SDS011;21556;55.782;37.528;2022-12-20T05:06:31;17.20;;;9.67;;
35434;SDS011;21556;55.782;37.528;2022-12-20T05:08:57;16.83;;;8.93;;
35434;SDS011;21556;55.782;37.528;2022-12-20T05:11:23;16.20;;;8.63;;
35434;SDS011;21556;55.782;37.528;2022-12-20T05:13:49;19.30;;;8.67;;
35434;SDS011;21556;55.782;37.528;2022-12-20T05:16:18;15.87;;;8.33;;
35434;SDS011;21556;55.782;37.528;2022-12-20T05:18:44;17.10;;;7.97;;
35434;SDS011;21556;55.782;37.528;2022-12-20T05:21:10;13.87;;;8.20;;
35434;SDS011;21556;55.782;37.528;2022-12-20T05:23:54;13.97;;;8.27;;
35434;SDS011;21556;55.782;37.528;2022-12-20T05:26:54;18.37;;;8.90;;
35434;SDS011;21556;55.782;37.528;2022-12-20T05:29:20;15.63;;;8.07;;
35434;SDS011;21556;55.782;37.528;2022-12-20T05:31:46;15.57;;;8.77;;
35434;SDS011;21556;55.782;37.528;2022-12-20T05:34:12;15.30;;;8.67;;
35434;SDS011;21556;55.782;37.528;2022-12-20T05:36:39;10.33;;;5.20;;
35434;SDS011;21556;55.782;37.528;2022-12-20T05:39:06;17.17;;;8.87;;
35434;SDS011;21556;55.782;37.528;2022-12-20T05:41:35;18.00;;;8.23;;
35434;SDS011;21556;55.782;37.528;2022-12-20T05:44:02;15.60;;;8.50;;
35434;SDS011;21556;55.782;37.528;2022-12-20T05:46:31;16.63;;;8.53;;
35434;SDS011;21556;55.782;37.528;2022-12-20T05:49:01;14.67;;;7.83;;
35434;SDS011;21556;55.782;37.528;2022-12-20T05:51:27;13.83;;;8.57;;
35434;SDS011;21556;55.782;37.528;2022-12-20T05:54:00;15.00;;;7.87;;
35434;SDS011;21556;55.782;37.528;2022-12-20T05:56:43;15.90;;;8.10;;
35434;SDS011;21556;55.782;37.528;2022-12-20T05:59:09;13.50;;;7.53;;
35434;SDS011;21556;55.782;37.528;2022-12-20T06:01:35;14.70;;;7.63;;
35434;SDS011;21556;55.782;37.528;2022-12-20T06:04:02;15.60;;;7.27;;
35434;SDS011;21556;55.782;37.528;2022-12-20T06:06:28;15.87;;;8.00;;
35434;SDS011;21556;55.782;37.528;2022-12-20T06:08:54;18.13;;;8.93;;
35434;SDS011;21556;55.782;37.528;2022-12-20T06:11:34;16.47;;;7.50;;
35434;SDS011;21556;55.782;37.528;2022-12-20T06:14:04;14.33;;;7.57;;
35434;SDS011;21556;55.782;37.528;2022-12-20T06:16:30;13.73;;;7.63;;
35434;SDS011;21556;55.782;37.528;2022-12-20T06:18:56;14.77;;;8.03;;
35434;SDS011;21556;55.782;37.528;2022-12-20T06:21:22;13.93;;;7.00;;
35434;SDS011;21556;55.782;37.528;2022-12-20T06:23:49;13.17;;;6.90;;
35434;SDS011;21556;55.782;37.528;2022-12-20T06:26:16;13.37;;;7.40;;
35434;SDS011;21556;55.782;37.528;2022-12-20T06:28:48;14.47;;;7.23;;
35434;SDS011;21556;55.782;37.528;2022-12-20T06:31:20;12.40;;;6.90;;
35434;SDS011;21556;55.782;37.528;2022-12-20T06:33:52;16.80;;;8.17;;
35434;SDS011;21556;55.782;37.528;2022-12-20T06:36:20;13.50;;;6.53;;
35434;SDS011;21556;55.782;37.528;2022-12-20T06:38:46;11.00;;;6.47;;
35434;SDS011;21556;55.782;37.528;2022-12-20T06:41:14;12.97;;;7.13;;
35434;SDS011;21556;55.782;37.528;2022-12-20T06:43:40;12.17;;;5.70;;
35434;SDS011;21556;55.782;37.528;2022-12-20T06:46:06;10.37;;;6.47;;
35434;SDS011;21556;55.782;37.528;2022-12-20T06:48:32;15.13;;;7.07;;
35434;SDS011;21556;55.782;37.528;2022-12-20T06:50:58;8.90;;;5.07;;
35434;SDS011;21556;55.782;37.528;2022-12-20T06:53:25;8.65;;;4.68;;
35434;SDS011;21556;55.782;37.528;2022-12-20T06:55:51;10.53;;;5.73;;
35434;SDS011;21556;55.782;37.528;2022-12-20T06:58:18;11.83;;;6.60;;
35434;SDS011;21556;55.782;37.528;2022-12-20T07:00:46;9.33;;;5.50;;
35434;SDS011;21556;55.782;37.528;2022-12-20T07:03:13;10.47;;;4.93;;
35434;SDS011;21556;55.782;37.528;2022-12-20T07:05:39;11.77;;;6.87;;
35434;SDS011;21556;55.782;37.528;2022-12-20T07:08:05;10.57;;;6.57;;
35434;SDS011;21556;55.782;37.528;2022-12-20T07:10:32;7.77;;;4.70;;
35434;SDS011;21556;55.782;37.528;2022-12-20T07:12:58;10.07;;;4.97;;
35434;SDS011;21556;55.782;37.528;2022-12-20T07:15:24;9.80;;;5.63;;
35434;SDS011;21556;55.782;37.528;2022-12-20T07:17:49;11.90;;;5.90;;
35434;SDS011;21556;55.782;37.528;2022-12-20T07:20:15;9.33;;;5.10;;
35434;SDS011;21556;55.782;37.528;2022-12-20T07:22:41;8.87;;;5.00;;
35434;SDS011;21556;55.782;37.528;2022-12-20T07:25:07;7.73;;;4.60;;
35434;SDS011;21556;55.782;37.528;2022-12-20T07:27:33;8.63;;;5.00;;
35434;SDS011;21556;55.782;37.528;2022-12-20T07:29:58;10.40;;;5.80;;
35434;SDS011;21556;55.782;37.528;2022-12-20T07:32:24;9.33;;;4.57;;
35434;SDS011;21556;55.782;37.528;2022-12-20T07:34:50;9.03;;;4.07;;
35434;SDS011;21556;55.782;37.528;2022-12-20T07:37:15;7.80;;;4.60;;
35434;SDS011;21556;55.782;37.528;2022-12-20T07:39:41;9.07;;;4.33;;
35434;SDS011;21556;55.782;37.528;2022-12-20T07:42:07;7.10;;;4.70;;
35434;SDS011;21556;55.782;37.528;2022-12-20T07:44:40;7.67;;;4.20;;
35434;SDS011;21556;55.782;37.528;2022-12-20T07:47:06;6.80;;;4.47;;
35434;SDS011;21556;55.782;37.528;2022-12-20T07:49:32;8.00;;;4.03;;
35434;SDS011;21556;55.782;37.528;2022-12-20T07:51:57;5.13;;;3.63;;
35434;SDS011;21556;55.782;37.528;2022-12-20T07:54:29;6.10;;;3.80;;
35434;SDS011;21556;55.782;37.528;2022-12-20T07:56:56;9.10;;;3.77;;
35434;SDS011;21556;55.782;37.528;2022-12-20T07:59:30;6.80;;;3.70;;
35434;SDS011;21556;55.782;37.528;2022-12-20T08:01:59;6.97;;;4.23;;
35434;SDS011;21556;55.782;37.528;2022-12-20T08:04:25;7.17;;;3.47;;
35434;SDS011;21556;55.782;37.528;2022-12-20T08:06:52;8.90;;;3.77;;
35434;SDS011;21556;55.782;37.528;2022-12-20T08:09:21;8.03;;;3.83;;
35434;SDS011;21556;55.782;37.528;2022-12-20T08:11:48;7.80;;;3.97;;
35434;SDS011;21556;55.782;37.528;2022-12-20T08:14:15;5.27;;;3.07;;
35434;SDS011;21556;55.782;37.528;2022-12-20T08:16:41;5.63;;;3.20;;
35434;SDS011;21556;55.782;37.528;2022-12-20T08:19:08;5.90;;;3.13;;
35434;SDS011;21556;55.782;37.528;2022-12-20T08:21:34;6.50;;;3.17;;
35434;SDS011;21556;55.782;37.528;2022-12-20T08:24:00;6.23;;;2.87;;
35434;SDS011;21556;55.782;37.528;2022-12-20T08:26:26;6.20;;;3.90;;
35434;SDS011;21556;55.782;37.528;2022-12-20T08:28:53;6.03;;;3.30;;
35434;SDS011;21556;55.782;37.528;2022-12-20T08:31:18;5.47;;;3.80;;
35434;SDS011;21556;55.782;37.528;2022-12-20T08:33:44;6.67;;;3.80;;
35434;SDS011;21556;55.782;37.528;2022-12-20T08:36:10;5.30;;;3.07;;
35434;SDS011;21556;55.782;37.528;2022-12-20T08:38:36;5.27;;;3.37;;
35434;SDS011;21556;55.782;37.528;2022-12-20T08:41:03;9.40;;;3.73;;
35434;SDS011;21556;55.782;37.528;2022-12-20T08:43:29;6.77;;;3.30;;
35434;SDS011;21556;55.782;37.528;2022-12-20T08:45:55;5.30;;;3.37;;
35434;SDS011;21556;55.782;37.528;2022-12-20T08:48:21;4.47;;;2.80;;
35434;SDS011;21556;55.782;37.528;2022-12-20T08:50:47;6.10;;;3.77;;
35434;SDS011;21556;55.782;37.528;2022-12-20T08:53:18;5.43;;;3.17;;
35434;SDS011;21556;55.782;37.528;2022-12-20T08:55:43;6.43;;;3.40;;
35434;SDS011;21556;55.782;37.528;2022-12-20T08:58:09;7.93;;;3.73;;
35434;SDS011;21556;55.782;37.528;2022-12-20T09:00:35;5.63;;;3.67;;
35434;SDS011;21556;55.782;37.528;2022-12-20T09:03:01;6.83;;;3.47;;
35434;SDS011;21556;55.782;37.528;2022-12-20T09:05:27;6.67;;;3.80;;
35434;SDS011;21556;55.782;37.528;2022-12-20T09:11:12;8.77;;;3.50;;
35434;SDS011;21556;55.782;37.528;2022-12-20T09:13:39;6.30;;;3.60;;
35434;SDS011;21556;55.782;37.528;2022-12-20T09:16:05;6.13;;;3.53;;
35434;SDS011;21556;55.782;37.528;2022-12-20T09:18:32;5.20;;;3.17;;
35434;SDS011;21556;55.782;37.528;2022-12-20T09:21:04;6.03;;;3.37;;
35434;SDS011;21556;55.782;37.528;2022-12-20T09:23:31;7.13;;;3.57;;
35434;SDS011;21556;55.782;37.528;2022-12-20T09:26:03;4.80;;;3.13;;
35434;SDS011;21556;55.782;37.528;2022-12-20T09:28:29;5.60;;;3.27;;
35434;SDS011;21556;55.782;37.528;2022-12-20T09:30:58;6.20;;;3.63;;
35434;SDS011;21556;55.782;37.528;2022-12-20T09:33:24;5.20;;;2.80;;
35434;SDS011;21556;55.782;37.528;2022-12-20T09:35:50;6.47;;;3.60;;
35434;SDS011;21556;55.782;37.528;2022-12-20T09:38:15;6.00;;;3.27;;
35434;SDS011;21556;55.782;37.528;2022-12-20T09:40:44;5.10;;;2.77;;
35434;SDS011;21556;55.782;37.528;2022-12-20T09:43:11;4.40;;;2.67;;
35434;SDS011;21556;55.782;37.528;2022-12-20T09:45:37;7.60;;;3.40;;
35434;SDS011;21556;55.782;37.528;2022-12-20T09:48:03;6.00;;;3.90;;
35434;SDS011;21556;55.782;37.528;2022-12-20T09:53:36;5.57;;;3.07;;
35434;SDS011;21556;55.782;37.528;2022-12-20T09:56:08;6.13;;;3.20;;
35434;SDS011;21556;55.782;37.528;2022-12-20T10:01:36;6.27;;;3.67;;
35434;SDS011;21556;55.782;37.528;2022-12-20T10:03:55;4.17;;;2.60;;
35434;SDS011;21556;55.782;37.528;2022-12-20T10:16:43;6.50;;;3.60;;
35434;SDS011;21556;55.782;37.528;2022-12-20T10:24:09;5.33;;;3.00;;
35434;SDS011;21556;55.782;37.528;2022-12-20T10:26:36;6.67;;;3.83;;
35434;SDS011;21556;55.782;37.528;2022-12-20T10:29:01;10.40;;;3.43;;
35434;SDS011;21556;55.782;37.528;2022-12-20T10:31:27;5.13;;;3.60;;
35434;SDS011;21556;55.782;37.528;2022-12-20T10:33:53;6.30;;;3.50;;
35434;SDS011;21556;55.782;37.528;2022-12-20T10:38:46;6.77;;;3.60;;
35434;SDS011;21556;55.782;37.528;2022-12-20T10:41:17;5.93;;;3.50;;
35434;SDS011;21556;55.782;37.528;2022-12-20T10:43:44;4.93;;;3.30;;
35434;SDS011;21556;55.782;37.528;2022-12-20T10:46:10;6.03;;;3.60;;
35434;SDS011;21556;55.782;37.528;2022-12-20T10:48:38;7.10;;;3.67;;
35434;SDS011;21556;55.782;37.528;2022-12-20T10:59:02;9.57;;;4.10;;
35434;SDS011;21556;55.782;37.528;2022-12-20T11:01:29;7.13;;;3.60;;
35434;SDS011;21556;55.782;37.528;2022-12-20T11:06:23;5.87;;;4.30;;
35434;SDS011;21556;55.782;37.528;2022-12-20T11:08:49;4.90;;;2.83;;
35434;SDS011;21556;55.782;37.528;2022-12-20T11:13:41;7.03;;;3.07;;
35434;SDS011;21556;55.782;37.528;2022-12-20T11:16:20;4.97;;;3.37;;
35434;SDS011;21556;55.782;37.528;2022-12-20T11:18:51;8.73;;;3.70;;
35434;SDS011;21556;55.782;37.528;2022-12-20T11:21:43;8.10;;;4.20;;
35434;SDS011;21556;55.782;37.528;2022-12-20T11:24:13;5.83;;;3.50;;
35434;SDS011;21556;55.782;37.528;2022-12-20T11:47:29;7.80;;;4.80;;
35434;SDS011;21556;55.782;37.528;2022-12-20T11:52:47;6.83;;;3.57;;
35434;SDS011;21556;55.782;37.528;2022-12-20T11:55:19;7.10;;;4.00;;
35434;SDS011;21556;55.782;37.528;2022-12-20T11:57:55;11.17;;;4.97;;
35434;SDS011;21556;55.782;37.528;2022-12-20T12:00:21;6.87;;;4.57;;
35434;SDS011;21556;55.782;37.528;2022-12-20T12:02:53;7.67;;;4.33;;
35434;SDS011;21556;55.782;37.528;2022-12-20T12:05:25;6.23;;;4.10;;
35434;SDS011;21556;55.782;37.528;2022-12-20T12:07:56;8.30;;;4.13;;
35434;SDS011;21556;55.782;37.528;2022-12-20T12:10:26;5.83;;;3.67;;
35434;SDS011;21556;55.782;37.528;2022-12-20T12:12:57;5.20;;;3.70;;
35434;SDS011;21556;55.782;37.528;2022-12-20T12:15:34;4.50;;;3.40;;
35434;SDS011;21556;55.782;37.528;2022-12-20T12:18:08;4.67;;;2.57;;
35434;SDS011;21556;55.782;37.528;2022-12-20T12:20:51;5.97;;;3.37;;
35434;SDS011;21556;55.782;37.528;2022-12-20T12:25:47;5.67;;;3.30;;
35434;SDS011;21556;55.782;37.528;2022-12-20T12:28:13;6.27;;;3.67;;
35434;SDS011;21556;55.782;37.528;2022-12-20T12:30:42;6.40;;;3.73;;
35434;SDS011;21556;55.782;37.528;2022-12-20T12:33:11;6.60;;;3.30;;
35434;SDS011;21556;55.782;37.528;2022-12-20T12:38:29;4.97;;;3.77;;
35434;SDS011;21556;55.782;37.528;2022-12-20T12:46:29;8.97;;;3.73;;
35434;SDS011;21556;55.782;37.528;2022-12-20T12:51:25;7.23;;;3.73;;
35434;SDS011;21556;55.782;37.528;2022-12-20T12:53:53;5.43;;;3.30;;
35434;SDS011;21556;55.782;37.528;2022-12-20T13:04:09;5.23;;;2.87;;
35434;SDS011;21556;55.782;37.528;2022-12-20T13:11:28;6.03;;;3.77;;
35434;SDS011;21556;55.782;37.528;2022-12-20T13:16:38;4.87;;;3.20;;
35434;SDS011;21556;55.782;37.528;2022-12-20T13:21:46;3.20;;;2.08;;
35434;SDS011;21556;55.782;37.528;2022-12-20T13:26:57;6.97;;;3.50;;
35434;SDS011;21556;55.782;37.528;2022-12-20T13:29:27;6.87;;;3.13;;
35434;SDS011;21556;55.782;37.528;2022-12-20T13:31:57;6.20;;;3.23;;
35434;SDS011;21556;55.782;37.528;2022-12-20T13:39:51;6.33;;;3.63;;
35434;SDS011;21556;55.782;37.528;2022-12-20T13:44:51;7.00;;;3.70;;
35434;SDS011;21556;55.782;37.528;2022-12-20T13:49:44;8.63;;;3.93;;
35434;SDS011;21556;55.782;37.528;2022-12-20T13:54:39;7.57;;;4.30;;
35434;SDS011;21556;55.782;37.528;2022-12-20T13:57:05;5.50;;;3.43;;
35434;SDS011;21556;55.782;37.528;2022-12-20T13:59:31;6.80;;;3.67;;
35434;SDS011;21556;55.782;37.528;2022-12-20T14:02:00;6.00;;;3.40;;
35434;SDS011;21556;55.782;37.528;2022-12-20T14:04:36;7.17;;;3.53;;
35434;SDS011;21556;55.782;37.528;2022-12-20T14:07:03;6.00;;;3.60;;
35434;SDS011;21556;55.782;37.528;2022-12-20T14:09:31;7.90;;;4.50;;
35434;SDS011;21556;55.782;37.528;2022-12-20T14:12:09;6.50;;;3.58;;
35434;SDS011;21556;55.782;37.528;2022-12-20T14:14:45;6.67;;;3.80;;
35434;SDS011;21556;55.782;37.528;2022-12-20T14:20:03;5.07;;;3.40;;
35434;SDS011;21556;55.782;37.528;2022-12-20T14:22:29;7.13;;;3.57;;
35434;SDS011;21556;55.782;37.528;2022-12-20T14:24:55;7.17;;;3.63;;
35434;SDS011;21556;55.782;37.528;2022-12-20T14:27:20;6.63;;;2.97;;
35434;SDS011;21556;55.782;37.528;2022-12-20T14:29:46;6.60;;;3.97;;
35434;SDS011;21556;55.782;37.528;2022-12-20T14:32:18;6.43;;;3.70;;
35434;SDS011;21556;55.782;37.528;2022-12-20T14:34:44;7.47;;;3.57;;
35434;SDS011;21556;55.782;37.528;2022-12-20T14:37:28;4.93;;;2.63;;
35434;SDS011;21556;55.782;37.528;2022-12-20T14:42:36;5.90;;;4.17;;
35434;SDS011;21556;55.782;37.528;2022-12-20T14:45:15;5.80;;;3.77;;
35434;SDS011;21556;55.782;37.528;2022-12-20T14:47:55;5.83;;;3.53;;
35434;SDS011;21556;55.782;37.528;2022-12-20T14:50:24;5.70;;;3.53;;
35434;SDS011;21556;55.782;37.528;2022-12-20T14:52:51;7.27;;;4.33;;
35434;SDS011;21556;55.782;37.528;2022-12-20T14:55:21;7.03;;;3.37;;
35434;SDS011;21556;55.782;37.528;2022-12-20T14:57:51;5.83;;;4.00;;
35434;SDS011;21556;55.782;37.528;2022-12-20T15:05:54;7.50;;;4.07;;
35434;SDS011;21556;55.782;37.528;2022-12-20T15:07:54;6.00;;;3.77;;
35434;SDS011;21556;55.782;37.528;2022-12-20T15:10:19;7.57;;;4.47;;
35434;SDS011;21556;55.782;37.528;2022-12-20T15:12:45;7.13;;;4.50;;
35434;SDS011;21556;55.782;37.528;2022-12-20T15:15:12;6.83;;;4.00;;
35434;SDS011;21556;55.782;37.528;2022-12-20T15:17:38;7.43;;;3.50;;
35434;SDS011;21556;55.782;37.528;2022-12-20T15:20:04;5.63;;;3.57;;
35434;SDS011;21556;55.782;37.528;2022-12-20T15:22:31;5.77;;;3.43;;
35434;SDS011;21556;55.782;37.528;2022-12-20T15:24:57;6.67;;;4.27;;
35434;SDS011;21556;55.782;37.528;2022-12-20T15:27:23;6.87;;;3.73;;
35434;SDS011;21556;55.782;37.528;2022-12-20T15:29:49;8.30;;;4.20;;
35434;SDS011;21556;55.782;37.528;2022-12-20T15:32:16;6.73;;;4.00;;
35434;SDS011;21556;55.782;37.528;2022-12-20T15:34:44;8.50;;;4.43;;
35434;SDS011;21556;55.782;37.528;2022-12-20T15:37:09;7.10;;;4.07;;
35434;SDS011;21556;55.782;37.528;2022-12-20T15:39:39;7.03;;;4.00;;
35434;SDS011;21556;55.782;37.528;2022-12-20T15:42:06;8.50;;;4.50;;
35434;SDS011;21556;55.782;37.528;2022-12-20T15:44:32;7.77;;;4.47;;
35434;SDS011;21556;55.782;37.528;2022-12-20T15:49:29;6.90;;;4.13;;
35434;SDS011;21556;55.782;37.528;2022-12-20T15:51:55;7.80;;;4.33;;
35434;SDS011;21556;55.782;37.528;2022-12-20T15:54:22;8.67;;;4.57;;
35434;SDS011;21556;55.782;37.528;2022-12-20T15:56:50;7.97;;;4.53;;
35434;SDS011;21556;55.782;37.528;2022-12-20T15:59:15;6.50;;;3.90;;
35434;SDS011;21556;55.782;37.528;2022-12-20T16:01:41;7.80;;;5.07;;
35434;SDS011;21556;55.782;37.528;2022-12-20T16:04:08;7.77;;;4.37;;
35434;SDS011;21556;55.782;37.528;2022-12-20T16:06:37;6.60;;;4.10;;
35434;SDS011;21556;55.782;37.528;2022-12-20T16:09:03;6.33;;;3.90;;
35434;SDS011;21556;55.782;37.528;2022-12-20T16:11:29;10.80;;;5.13;;
35434;SDS011;21556;55.782;37.528;2022-12-20T16:13:56;7.37;;;4.33;;
35434;SDS011;21556;55.782;37.528;2022-12-20T16:16:26;8.00;;;5.00;;
35434;SDS011;21556;55.782;37.528;2022-12-20T16:18:52;7.40;;;4.77;;
35434;SDS011;21556;55.782;37.528;2022-12-20T16:21:19;9.13;;;4.57;;
35434;SDS011;21556;55.782;37.528;2022-12-20T16:23:45;10.87;;;5.17;;
35434;SDS011;21556;55.782;37.528;2022-12-20T16:26:15;10.80;;;5.60;;
35434;SDS011;21556;55.782;37.528;2022-12-20T16:28:41;8.33;;;4.97;;
35434;SDS011;21556;55.782;37.528;2022-12-20T16:31:14;10.50;;;5.60;;
35434;SDS011;21556;55.782;37.528;2022-12-20T16:33:41;9.63;;;4.77;;
35434;SDS011;21556;55.782;37.528;2022-12-20T16:36:09;9.37;;;5.47;;
35434;SDS011;21556;55.782;37.528;2022-12-20T16:38:35;6.03;;;3.38;;
35434;SDS011;21556;55.782;37.528;2022-12-20T16:41:09;7.93;;;5.00;;
35434;SDS011;21556;55.782;37.528;2022-12-20T16:43:35;7.27;;;4.17;;
35434;SDS011;21556;55.782;37.528;2022-12-20T16:46:01;7.90;;;5.00;;
35434;SDS011;21556;55.782;37.528;2022-12-20T16:48:26;8.60;;;4.87;;
35434;SDS011;21556;55.782;37.528;2022-12-20T16:50:52;11.30;;;4.60;;
35434;SDS011;21556;55.782;37.528;2022-12-20T16:53:17;10.03;;;5.03;;
35434;SDS011;21556;55.782;37.528;2022-12-20T16:55:43;9.23;;;5.53;;
35434;SDS011;21556;55.782;37.528;2022-12-20T16:58:09;7.53;;;4.30;;
35434;SDS011;21556;55.782;37.528;2022-12-20T17:00:34;10.57;;;4.70;;